x

Ne Burgeo Bank (44255) Wave Buoy

8:00pm - Sun 30th Aug 2015 All times are ADT. -3 hours from GMT.

  • Sig Wave height 2.3ft
  • Peak Period 5s
  • Wind
    7mph, 9mph gusts
  • Sea Temp 64°f
  • Sea Pressure 1013.9mb
  • Ne Burgeo Bank
  • Ne Burgeo Bank

More Historic Weather Station data

Upgrade to MSW Pro to gain access to the past 30 days of data for over 8000 Wavebouys and Weather Stations around the globe.

Join Pro

Comparision Forecast

View Surf forecast
   
Sun 08/30 8:00pm 2.5ft 5s 7 9 mph 1013.9mb 64f
7:00pm 2ft 10s 7 9 mph 1013.4mb 64f
6:00pm 2ft 6s 9 11 mph 1013.6mb 64f
5:00pm 2ft 10s 7 9 mph 1013.8mb 65f
4:00pm 2ft 10s 4 7 mph 1013.9mb 64f
3:00pm 2ft 9s 7
mph
1014.2mb 64f
2:00pm 2ft 6s 4
mph
1014.5mb 64f
1:00pm 2ft 9s 4
mph
1014.8mb 64f
12:00pm 2.5ft 10s 4 7 mph 1015mb 64f
11:00am 2.5ft 5s 4 7 mph 1015.3mb 64f
10:00am 2.5ft 5s 4 7 mph 1015.3mb 64f
9:00am 2.5ft 5s 9 11 mph 1015.3mb 64f
8:00am 2.5ft 4s 4 7 mph 1015.4mb 63f
7:00am 2.5ft 5s 4
mph
1015.4mb 63f
6:00am 2.5ft 10s 2 4 mph 1015.5mb 63f
5:00am 2.5ft 10s 4
mph
1015.5mb 63f
4:00am 2.5ft 6s 4 7 mph 1015.5mb 63f
3:00am 2.5ft 5s 7 9 mph 1015.7mb 63f
2:00am 2.5ft 5s 7 9 mph 1015.6mb 63f
1:00am 2.5ft 10s 9
mph
1016mb 64f
12:00am 3.5ft 5s 11 13 mph 1015.8mb 64f
Sat 08/29 11:00pm 3.5ft 5s 11 13 mph 1015.9mb 63f
10:00pm 4ft  -  13 16 mph 1015.8mb 64f
9:00pm 4.5ft 6s 16 18 mph 1015.8mb 64f
8:00pm 5ft 5s 16 18 mph 1015.4mb 64f
7:00pm 5ft 5s 18 22 mph 1015.1mb 64f
6:00pm 5ft 5s 22 25 mph 1014.9mb 64f
5:00pm 5ft 5s 22 27 mph 1014.6mb 64f
4:00pm 4.5ft 5s 20 25 mph 1014.7mb 64f
3:00pm 4ft 5s 20 25 mph 1014.7mb 64f
2:00pm 4ft 8s 18 22 mph 1014.8mb 64f
1:00pm 3.5ft 6s 18 22 mph 1014.9mb 64f
12:00pm 3.5ft 8s 16 18 mph 1015.3mb 64f
11:00am 3.5ft 6s 13 16 mph 1015.3mb 64f
10:00am 3.5ft 5s 13 16 mph 1015mb 63f
9:00am 3.5ft 5s 9
mph
1015.1mb 63f
8:00am 4ft 5s 11 13 mph 1014.8mb 63f
7:00am 4.5ft 5s 16 18 mph 1014.7mb 63f
6:00am 4.5ft 5s 13 16 mph 1014.6mb 63f
5:00am 4.5ft 6s 16 18 mph 1014.4mb 63f
4:00am 4.5ft 6s 16 20 mph 1014.2mb 63f
3:00am 4.5ft 6s 16 18 mph 1013.9mb 63f
2:00am 4.5ft 6s 16 20 mph 1013.9mb 63f
1:00am 5ft 6s 16 18 mph 1014.1mb 63f
12:00am 5ft 6s 16 18 mph 1013.9mb 63f
Fri 08/28 11:00pm 5ft 6s 18 20 mph 1013.3mb 63f
10:00pm 6ft 6s 13 18 mph 1013mb 64f
9:00pm 6ft 6s 18 22 mph 1012.7mb 64f
8:00pm 6ft 6s 20 25 mph 1011.8mb 64f
7:00pm 6ft 6s 20 22 mph 1011mb 64f
6:00pm 6ft 6s 20 25 mph 1010.9mb 64f
5:00pm 6ft 5s 22 27 mph 1010.4mb 64f
4:00pm 6ft 6s 20 25 mph 1010.2mb 64f
3:00pm 5.5ft 5s 18 20 mph 1010.3mb 64f
2:00pm 5ft 6s 18 22 mph 1010.3mb 64f
1:00pm 5ft 7s 20 25 mph 1010.1mb 64f
12:00pm 5ft 7s 16 18 mph 1010.1mb 64f
11:00am 5.5ft 7s 11 13 mph 1009.9mb 64f
10:00am 5.5ft 7s 16 18 mph 1009.3mb 64f
9:00am 5.5ft 6s 13 16 mph 1009.1mb 63f
8:00am 6ft 7s 11 13 mph 1008.7mb 64f
7:00am 6ft 6s 11 13 mph 1008.8mb 64f
6:00am 7ft 6s 16 18 mph 1008.4mb 64f
5:00am 8ft 6s 20 25 mph 1008.3mb 64f
4:00am 8ft 6s 25 31 mph 1008.9mb 64f
3:00am 6ft 6s 18 25 mph 1010.2mb 64f
2:00am 6ft 6s 22 27 mph 1011.8mb 64f
1:00am 6ft 5s 20 25 mph 1013.8mb 64f
12:00am 5.5ft 5s 22 27 mph 1014.2mb 64f
Thu 08/27 11:00pm 5ft 5s 25 29 mph 1014.5mb 64f
10:00pm 4.5ft 5s 18 22 mph 1016.3mb 64f
9:00pm 4.5ft 5s 18 20 mph 1016.9mb 64f
8:00pm 4.5ft 4s 16 20 mph 1017.1mb 64f
7:00pm 4.5ft 10s 18 22 mph 1017mb 64f
6:00pm 4ft 9s 16 20 mph 1017.4mb 64f
5:00pm 4ft 9s 18 20 mph 1017.9mb 64f
4:00pm 3.5ft 12s 13 18 mph 1018.4mb 64f
3:00pm 3.5ft 10s 13 18 mph 1019.2mb 64f
2:00pm 3.5ft 12s 13 16 mph 1019.5mb 64f
1:00pm 3.5ft 11s 13 18 mph 1020mb 64f
12:00pm 3.5ft 12s 13 18 mph 1020.2mb 64f
11:00am 3.5ft 10s 13 16 mph 1020.9mb 64f
10:00am 3.5ft 9s 13 18 mph 1020.8mb 64f
9:00am 3.5ft 9s 11 16 mph 1021.2mb 64f
8:00am 3.5ft 10s 11 13 mph 1021.1mb 64f
7:00am 3.5ft 9s 9 11 mph 1021.1mb 64f
6:00am 3.5ft 9s 9 11 mph 1021mb 64f
5:00am 3.5ft 10s 11 16 mph 1020.9mb 64f
4:00am 3.5ft 9s 11 16 mph 1021mb 64f
3:00am 3.5ft 10s 11 13 mph 1021.3mb 64f
2:00am 3.5ft 10s 11 13 mph 1021.8mb 64f
1:00am 3.5ft 10s 9 11 mph 1022.2mb 64f